Time;durP1;ratioP1;P1;durP2;ratioP2;P2;SDS_P1;SDS_P2;PMS_P1;PMS_P2;Temp;Humidity;BMP_temperature;BMP_pressure;BME280_temperature;BME280_humidity;BME280_pressure;Samples;Min_cycle;Max_cycle;Signal;HPM_P1;HPM_P2
2020/12/10 00:04:21;;;;;;;0.63;0.43;;;8.30;99.90;;;;;;10230353;29;20593;-72
2020/12/10 00:09:23;;;;;;;1.43;0.77;;;8.10;99.90;;;;;;10227451;29;20187;-72
2020/12/10 00:14:30;;;;;;;0.20;0.20;;;8.00;99.90;;;;;;10231728;29;20193;-72
2020/12/10 00:19:33;;;;;;;0.33;0.27;;;8.10;99.90;;;;;;10222113;29;20208;-71
2020/12/10 00:24:36;;;;;;;0.40;0.40;;;8.10;99.90;;;;;;10234232;28;20233;-74
2020/12/10 00:29:39;;;;;;;0.20;0.17;;;8.20;99.90;;;;;;10210604;28;20713;-72
2020/12/10 00:34:42;;;;;;;0.30;0.30;;;8.20;99.90;;;;;;10206506;29;20209;-71
2020/12/10 00:39:45;;;;;;;0.40;0.40;;;8.10;99.90;;;;;;10207140;29;20208;-72
2020/12/10 00:44:48;;;;;;;1.60;1.40;;;8.00;99.90;;;;;;10205500;29;20230;-73
2020/12/10 00:49:51;;;;;;;0.30;0.20;;;8.00;99.90;;;;;;10204438;29;20206;-73
2020/12/10 00:54:53;;;;;;;0.20;0.20;;;8.00;99.90;;;;;;10204748;29;20202;-72
2020/12/10 00:59:57;;;;;;;0.30;0.30;;;8.10;99.90;;;;;;10214050;28;20252;-73
2020/12/10 01:04:59;;;;;;;0.87;0.87;;;8.00;99.90;;;;;;10285357;28;20311;-73
2020/12/10 01:10:03;;;;;;;1.17;0.97;;;7.90;99.90;;;;;;10282242;28;20200;-73
2020/12/10 01:15:07;;;;;;;0.73;0.73;;;7.70;99.90;;;;;;10284931;28;20201;-73
2020/12/10 01:20:10;;;;;;;1.43;0.73;;;7.50;99.90;;;;;;10283892;28;20200;-73
2020/12/10 01:25:12;;;;;;;0.47;0.47;;;7.30;99.90;;;;;;10295410;28;20219;-73
2020/12/10 01:30:16;;;;;;;0.70;0.67;;;7.10;99.90;;;;;;10300814;28;20640;-72
2020/12/10 01:35:18;;;;;;;1.10;0.63;;;7.10;99.90;;;;;;10287149;28;20200;-71
2020/12/10 01:40:21;;;;;;;0.70;0.70;;;6.80;99.90;;;;;;10313776;28;20670;-71
2020/12/10 01:45:25;;;;;;;1.03;0.93;;;6.70;99.90;;;;;;10283886;28;20964;-72
2020/12/10 01:50:27;;;;;;;1.80;1.03;;;6.80;99.90;;;;;;10282084;28;20255;-72
2020/12/10 01:55:30;;;;;;;0.20;0.20;;;6.90;99.90;;;;;;10266603;28;20199;-72
2020/12/10 02:00:35;;;;;;;0.47;0.47;;;7.00;99.90;;;;;;10318945;23;20873;-78
2020/12/10 02:05:42;;;;;;;0.87;0.80;;;7.00;99.90;;;;;;10328723;28;20267;-77
2020/12/10 02:10:45;;;;;;;2.53;0.20;;;7.00;99.90;;;;;;10327221;28;20214;-77
2020/12/10 02:15:49;;;;;;;0.30;0.30;;;6.90;99.90;;;;;;10331991;28;20278;-77
2020/12/10 02:20:51;;;;;;;0.57;0.33;;;7.10;99.90;;;;;;10341965;28;20204;-75
2020/12/10 02:25:57;;;;;;;0.30;0.30;;;6.90;99.90;;;;;;10328299;28;20235;-77
2020/12/10 02:31:00;;;;;;;0.30;0.30;;;6.90;99.90;;;;;;10321852;28;20206;-76
2020/12/10 02:36:02;;;;;;;0.60;0.60;;;7.30;99.90;;;;;;10340824;28;20722;-74
2020/12/10 02:41:06;;;;;;;0.50;0.50;;;7.30;99.90;;;;;;10339584;28;20222;-76
2020/12/10 02:46:09;;;;;;;0.97;0.50;;;7.50;99.90;;;;;;10335735;28;20237;-76
2020/12/10 02:51:12;;;;;;;0.27;0.27;;;8.10;99.90;;;;;;10362819;28;20201;-77
2020/12/10 02:56:16;;;;;;;0.37;0.37;;;8.30;99.90;;;;;;10362240;28;20648;-77
2020/12/10 03:01:19;;;;;;;0.20;0.10;;;8.40;99.90;;;;;;10354398;23;20318;-70
2020/12/10 03:06:24;;;;;;;0.20;0.20;;;8.50;99.90;;;;;;10327535;28;20242;-68
2020/12/10 03:11:27;;;;;;;0.30;0.23;;;8.60;99.90;;;;;;10326715;28;20204;-69
2020/12/10 03:16:30;;;;;;;0.47;0.37;;;8.60;99.90;;;;;;10325638;28;20319;-69
2020/12/10 03:21:32;;;;;;;0.20;0.20;;;8.60;99.90;;;;;;10319041;28;20777;-68
2020/12/10 03:26:36;;;;;;;0.40;0.20;;;8.70;99.90;;;;;;10336637;28;20698;-68
2020/12/10 03:31:39;;;;;;;1.07;0.30;;;8.80;99.90;;;;;;10356875;28;20204;-69
2020/12/10 03:36:49;;;;;;;0.30;0.27;;;8.90;99.90;;;;;;10320248;28;20195;-68
2020/12/10 03:41:55;;;;;;;0.20;0.10;;;8.90;99.90;;;;;;10326466;28;20203;-70
2020/12/10 03:46:57;;;;;;;0.73;0.33;;;8.90;99.90;;;;;;10320026;28;20231;-69
2020/12/10 03:52:00;;;;;;;0.20;0.10;;;8.80;99.90;;;;;;10344909;28;20206;-69
2020/12/10 03:57:04;;;;;;;0.20;0.10;;;8.90;99.90;;;;;;10335742;28;20196;-68
2020/12/10 04:02:06;;;;;;;0.50;0.40;;;8.90;99.90;;;;;;10272195;28;1345109;-70
2020/12/10 04:07:09;;;;;;;0.53;0.50;;;9.10;99.90;;;;;;10321204;28;20255;-70
2020/12/10 04:12:14;;;;;;;0.20;0.10;;;9.00;99.90;;;;;;10329682;28;20223;-69
2020/12/10 04:17:16;;;;;;;1.47;0.53;;;9.20;99.90;;;;;;10326846;28;20238;-69
2020/12/10 04:22:19;;;;;;;0.30;0.20;;;9.20;99.90;;;;;;10323809;28;20191;-69
2020/12/10 04:27:22;;;;;;;0.20;0.13;;;9.20;99.90;;;;;;10324795;28;20230;-69
2020/12/10 04:32:25;;;;;;;0.27;0.27;;;9.20;99.90;;;;;;10324759;28;20191;-69
2020/12/10 04:37:30;;;;;;;0.20;0.10;;;9.30;99.90;;;;;;10326735;28;20645;-68
2020/12/10 04:42:34;;;;;;;0.30;0.30;;;9.20;99.90;;;;;;10334711;28;20210;-67
2020/12/10 04:47:38;;;;;;;0.33;0.33;;;9.20;99.90;;;;;;10363385;28;20218;-68
2020/12/10 04:52:40;;;;;;;0.20;0.10;;;9.00;99.90;;;;;;10365377;28;20201;-67
2020/12/10 04:57:45;;;;;;;0.33;0.27;;;8.80;99.90;;;;;;10364954;28;20285;-67
2020/12/10 05:02:48;;;;;;;0.30;0.20;;;8.60;99.90;;;;;;10364519;28;20222;-67
2020/12/10 05:07:57;;;;;;;0.20;0.10;;;8.50;99.90;;;;;;10361972;28;20702;-68
2020/12/10 05:13:10;;;;;;;0.20;0.10;;;8.30;99.90;;;;;;10364598;28;20199;-69
2020/12/10 05:18:18;;;;;;;1.37;0.80;;;8.10;99.90;;;;;;10364296;28;20202;-68
2020/12/10 05:23:30;;;;;;;0.50;0.37;;;8.00;99.90;;;;;;10363486;28;20286;-69
2020/12/10 05:28:43;;;;;;;0.53;0.43;;;7.90;99.90;;;;;;10363409;28;20272;-68
2020/12/10 05:33:56;;;;;;;1.03;0.53;;;7.80;99.90;;;;;;10341026;28;20200;-67
2020/12/10 05:39:03;;;;;;;0.40;0.40;;;7.80;99.90;;;;;;10324160;28;20207;-67
2020/12/10 05:44:17;;;;;;;0.20;0.10;;;7.80;99.90;;;;;;10323905;28;20600;-67
2020/12/10 05:49:20;;;;;;;0.20;0.10;;;7.80;99.90;;;;;;10321401;28;20210;-67
2020/12/10 05:54:28;;;;;;;0.20;0.10;;;7.80;99.90;;;;;;10320891;28;20195;-67
2020/12/10 05:59:35;;;;;;;0.20;0.10;;;7.80;99.90;;;;;;10323336;28;20199;-67
2020/12/10 06:04:38;;;;;;;0.30;0.23;;;7.90;99.90;;;;;;10322058;28;20615;-66
2020/12/10 06:09:41;;;;;;;0.20;0.20;;;8.10;99.90;;;;;;10323171;28;20209;-67
2020/12/10 06:14:55;;;;;;;0.57;0.30;;;8.20;99.90;;;;;;10322204;28;20238;-67
2020/12/10 06:19:57;;;;;;;0.60;0.30;;;8.40;99.90;;;;;;10322591;28;20195;-67
2020/12/10 06:25:01;;;;;;;0.20;0.10;;;8.70;99.90;;;;;;10321297;28;20321;-68
2020/12/10 06:35:40;;;;;;;0.20;0.10;;;8.80;99.90;;;;;;10317829;28;20672;-67
2020/12/10 06:40:43;;;;;;;0.20;0.10;;;8.90;99.90;;;;;;10322154;28;20253;-68
2020/12/10 06:45:47;;;;;;;0.20;0.10;;;8.90;99.90;;;;;;10326349;28;20234;-66
2020/12/10 06:56:11;;;;;;;0.20;0.20;;;9.00;99.90;;;;;;10328550;28;20974;-66
2020/12/10 07:01:26;;;;;;;0.20;0.10;;;8.90;99.90;;;;;;10325911;28;20831;-67
2020/12/10 07:06:30;;;;;;;1.03;0.67;;;8.80;99.90;;;;;;10341953;28;20738;-68
2020/12/10 07:11:35;;;;;;;0.30;0.20;;;8.80;99.90;;;;;;10366782;28;20227;-67
2020/12/10 07:16:53;;;;;;;0.47;0.47;;;8.80;99.90;;;;;;10366856;28;20282;-69
2020/12/10 07:21:56;;;;;;;0.20;0.20;;;8.80;99.90;;;;;;10366483;28;20210;-69
2020/12/10 07:26:59;;;;;;;0.20;0.20;;;9.00;99.90;;;;;;10366940;28;20248;-69
2020/12/10 07:32:03;;;;;;;0.20;0.10;;;9.00;99.90;;;;;;10346711;28;20648;-69
2020/12/10 07:37:09;;;;;;;0.20;0.20;;;9.00;99.90;;;;;;10365820;28;20230;-68
2020/12/10 07:42:19;;;;;;;0.53;0.30;;;9.20;99.90;;;;;;10349511;28;20206;-69
2020/12/10 07:47:22;;;;;;;0.20;0.10;;;9.30;99.90;;;;;;10327151;28;20229;-69
2020/12/10 07:52:25;;;;;;;0.20;0.10;;;9.40;99.90;;;;;;10326069;28;20672;-69
2020/12/10 07:57:44;;;;;;;0.20;0.10;;;9.50;99.90;;;;;;10326694;28;20223;-67
2020/12/10 08:08:34;;;;;;;0.60;0.53;;;9.60;99.90;;;;;;10322238;28;20231;-69
2020/12/10 08:13:37;;;;;;;0.40;0.27;;;9.70;99.90;;;;;;10313208;28;20226;-64
2020/12/10 08:24:06;;;;;;;0.60;0.50;;;9.70;99.90;;;;;;10364115;28;20261;-68
2020/12/10 08:29:14;;;;;;;0.40;0.40;;;9.80;99.90;;;;;;10337491;28;20231;-68
2020/12/10 08:34:32;;;;;;;0.20;0.10;;;9.80;99.90;;;;;;10321646;28;20198;-68
2020/12/10 08:39:37;;;;;;;1.50;0.40;;;9.80;99.90;;;;;;10320516;28;20242;-68
2020/12/10 08:44:46;;;;;;;0.20;0.10;;;9.80;99.90;;;;;;10315549;28;20595;-68
2020/12/10 08:50:23;;;;;;;0.83;0.60;;;9.90;99.90;;;;;;10312828;28;20200;-69
2020/12/10 08:55:26;;;;;;;0.20;0.20;;;10.00;99.90;;;;;;10323994;28;20235;-68
2020/12/10 09:00:29;;;;;;;0.20;0.10;;;9.90;99.90;;;;;;10319069;28;20633;-68
2020/12/10 09:05:32;;;;;;;0.20;0.20;;;9.90;99.90;;;;;;10324058;28;20215;-69
2020/12/10 09:10:35;;;;;;;0.20;0.10;;;9.90;99.90;;;;;;10332293;28;20199;-68
2020/12/10 09:15:41;;;;;;;0.57;0.50;;;9.90;99.90;;;;;;10324771;28;20196;-68
2020/12/10 09:20:45;;;;;;;0.73;0.23;;;10.00;99.90;;;;;;10324297;28;20199;-70
2020/12/10 09:25:48;;;;;;;0.20;0.20;;;10.20;99.90;;;;;;10322765;28;20229;-67
2020/12/10 09:30:51;;;;;;;0.30;0.20;;;10.50;99.90;;;;;;10323351;28;20203;-69
2020/12/10 09:35:55;;;;;;;0.30;0.30;;;10.70;99.90;;;;;;10311214;28;20200;-69
2020/12/10 09:40:59;;;;;;;0.83;0.43;;;11.00;99.90;;;;;;10305440;28;20540;-69
2020/12/10 09:46:04;;;;;;;0.30;0.30;;;11.30;99.90;;;;;;10307455;28;20286;-69
2020/12/10 09:51:10;;;;;;;1.07;0.60;;;11.30;99.90;;;;;;10322516;28;20198;-69
2020/12/10 10:01:44;;;;;;;0.23;0.23;;;11.60;99.90;;;;;;10360582;28;20676;-71
2020/12/10 10:06:49;;;;;;;0.63;0.63;;;11.70;99.90;;;;;;10360127;28;20745;-68
2020/12/10 10:11:52;;;;;;;0.20;0.20;;;12.10;99.90;;;;;;10361350;28;20191;-69
2020/12/10 10:16:54;;;;;;;0.30;0.23;;;12.10;99.90;;;;;;10361785;28;20205;-69
2020/12/10 10:21:58;;;;;;;0.20;0.10;;;12.80;99.90;;;;;;10335524;28;20195;-69
2020/12/10 10:27:01;;;;;;;0.30;0.30;;;13.10;99.90;;;;;;10320553;28;20234;-69
2020/12/10 10:32:07;;;;;;;0.30;0.20;;;13.10;99.90;;;;;;10318541;28;20199;-69
2020/12/10 10:42:29;;;;;;;0.87;0.40;;;13.40;99.90;;;;;;10321656;28;20195;-69
2020/12/10 10:53:10;;;;;;;0.30;0.20;;;13.90;99.90;;;;;;10319936;28;20290;-69
2020/12/10 10:58:13;;;;;;;0.20;0.20;;;13.60;99.90;;;;;;10321818;28;20557;-70
2020/12/10 11:03:15;;;;;;;0.60;0.23;;;13.60;99.90;;;;;;10306571;28;20216;-70
2020/12/10 11:08:19;;;;;;;0.77;0.77;;;13.70;99.90;;;;;;10341133;28;20223;-69
2020/12/10 11:13:22;;;;;;;0.63;0.50;;;13.80;99.90;;;;;;10360530;28;20201;-70
2020/12/10 11:18:24;;;;;;;1.50;1.03;;;14.00;99.90;;;;;;10360060;28;20213;-69
2020/12/10 11:23:28;;;;;;;0.27;0.10;;;14.20;99.90;;;;;;10356043;28;20192;-69
2020/12/10 11:28:55;;;;;;;0.20;0.13;;;14.30;99.90;;;;;;10349824;28;20227;-68
2020/12/10 11:34:16;;;;;;;1.27;1.17;;;14.30;99.90;;;;;;10325288;28;20731;-70
2020/12/10 11:39:37;;;;;;;0.20;0.10;;;14.20;99.90;;;;;;10336606;28;20197;-68
2020/12/10 11:44:41;;;;;;;0.73;0.40;;;14.30;99.90;;;;;;10366535;28;20570;-69
2020/12/10 11:49:45;;;;;;;0.20;0.10;;;14.40;99.90;;;;;;10365699;28;20237;-68
2020/12/10 11:54:48;;;;;;;4.63;0.37;;;14.40;99.90;;;;;;10328030;28;20292;-69
2020/12/10 11:59:50;;;;;;;3.87;1.60;;;14.20;99.90;;;;;;10327490;28;20232;-69
2020/12/10 12:10:33;;;;;;;1.03;0.70;;;14.40;99.90;;;;;;10326198;28;20215;-70
2020/12/10 12:15:35;;;;;;;1.87;0.97;;;14.50;99.90;;;;;;10332166;28;20298;-69
2020/12/10 12:20:38;;;;;;;0.50;0.40;;;14.70;99.90;;;;;;10365724;28;20203;-69
2020/12/10 12:25:41;;;;;;;0.30;0.30;;;15.10;99.90;;;;;;10334718;28;20219;-69
2020/12/10 12:36:30;;;;;;;0.20;0.10;;;15.00;99.90;;;;;;10325626;28;20277;-68
2020/12/10 12:41:34;;;;;;;2.50;0.20;;;14.50;99.90;;;;;;10364266;28;20557;-69
2020/12/10 12:46:36;;;;;;;0.53;0.53;;;14.80;99.90;;;;;;10364169;28;20229;-68
2020/12/10 12:51:39;;;;;;;0.30;0.20;;;15.10;99.90;;;;;;10317664;28;20215;-68
2020/12/10 12:56:47;;;;;;;1.03;0.30;;;15.50;99.90;;;;;;10311878;28;20625;-69
2020/12/10 13:01:58;;;;;;;0.20;0.10;;;15.30;99.90;;;;;;10304164;28;20228;-70
2020/12/10 13:07:00;;;;;;;0.40;0.20;;;16.00;99.90;;;;;;10305050;28;20233;-71
2020/12/10 13:12:20;;;;;;;0.63;0.40;;;16.00;99.90;;;;;;10311480;28;20223;-68
2020/12/10 13:22:41;;;;;;;0.30;0.23;;;16.20;99.90;;;;;;10318587;28;20199;-70
2020/12/10 13:27:48;;;;;;;4.90;1.17;;;16.20;99.90;;;;;;10320904;28;20322;-69
2020/12/10 13:32:51;;;;;;;0.30;0.20;;;15.90;99.90;;;;;;10320596;28;20200;-69
2020/12/10 13:38:08;;;;;;;0.50;0.30;;;16.10;99.90;;;;;;10323897;28;20191;-72
2020/12/10 13:48:32;;;;;;;0.70;0.43;;;16.50;99.90;;;;;;10362390;28;20245;-66
2020/12/10 13:53:35;;;;;;;0.50;0.40;;;16.40;99.90;;;;;;10360992;28;20190;-68
2020/12/10 13:58:39;;;;;;;0.20;0.10;;;17.10;99.90;;;;;;10337166;28;20199;-68
2020/12/10 14:03:43;;;;;;;1.53;0.60;;;18.20;99.90;;;;;;10321434;28;20226;-69
2020/12/10 14:08:46;;;;;;;0.67;0.60;;;18.70;99.90;;;;;;10316095;28;20286;-69
2020/12/10 14:13:49;;;;;;;1.10;0.73;;;18.90;99.90;;;;;;10322828;28;20191;-69
2020/12/10 14:18:57;;;;;;;1.03;0.47;;;20.00;99.90;;;;;;10323379;28;20195;-69
2020/12/10 14:29:21;;;;;;;0.80;0.43;;;20.60;99.90;;;;;;10331886;28;20236;-69
2020/12/10 14:34:43;;;;;;;1.00;0.83;;;19.90;99.90;;;;;;10361778;28;20737;-69
2020/12/10 14:39:46;;;;;;;1.43;0.77;;;19.70;99.90;;;;;;10361571;28;20206;-69
2020/12/10 14:44:53;;;;;;;5.10;0.97;;;19.00;99.90;;;;;;10360569;28;20225;-69
2020/12/10 14:49:56;;;;;;;0.40;0.40;;;18.50;99.90;;;;;;10361465;28;20640;-69
2020/12/10 14:55:03;;;;;;;10.37;1.90;;;18.00;99.90;;;;;;10325675;28;20235;-69
2020/12/10 15:05:23;;;;;;;2.73;0.33;;;17.80;99.90;;;;;;10320705;28;20330;-68
2020/12/10 15:10:26;;;;;;;3.03;0.30;;;17.20;99.90;;;;;;10329829;28;20206;-70
2020/12/10 15:15:29;;;;;;;0.67;0.33;;;17.20;99.90;;;;;;10328677;28;20686;-70
2020/12/10 15:20:36;;;;;;;1.23;0.90;;;16.70;99.90;;;;;;10292925;28;20606;-71
2020/12/10 15:25:38;;;;;;;0.80;0.77;;;16.30;99.90;;;;;;10328027;28;20197;-69
2020/12/10 15:30:42;;;;;;;0.60;0.60;;;17.50;99.90;;;;;;10367135;28;20624;-69
2020/12/10 15:35:44;;;;;;;0.93;0.93;;;18.10;99.90;;;;;;10365923;28;20234;-71
2020/12/10 15:40:48;;;;;;;1.50;0.60;;;18.20;99.90;;;;;;10366560;28;20286;-70
2020/12/10 15:45:51;;;;;;;0.80;0.60;;;17.30;99.90;;;;;;10366585;28;20226;-70
2020/12/10 15:51:21;;;;;;;0.83;0.53;;;16.30;99.90;;;;;;10366184;28;20231;-69
2020/12/10 16:01:48;;;;;;;1.80;0.90;;;14.90;99.90;;;;;;10325314;28;20643;-68
2020/12/10 16:06:51;;;;;;;0.77;0.60;;;14.50;99.90;;;;;;10326571;28;20237;-68
2020/12/10 16:11:53;;;;;;;0.67;0.60;;;14.30;99.90;;;;;;10325960;28;20218;-69
2020/12/10 16:16:57;;;;;;;1.40;0.97;;;14.10;99.90;;;;;;10320446;28;20206;-68
2020/12/10 16:21:59;;;;;;;1.60;0.73;;;13.60;99.90;;;;;;10337186;28;20201;-68
2020/12/10 16:27:02;;;;;;;1.33;1.00;;;13.60;99.90;;;;;;10364805;28;20772;-69
2020/12/10 16:32:05;;;;;;;3.07;1.60;;;13.50;99.90;;;;;;10364701;28;20659;-68
2020/12/10 16:37:08;;;;;;;0.80;0.80;;;13.20;99.90;;;;;;10365605;28;20203;-69
2020/12/10 16:42:12;;;;;;;27.40;0.90;;;13.00;99.90;;;;;;10318327;28;20200;-70
2020/12/10 16:47:19;;;;;;;0.77;0.70;;;12.70;99.90;;;;;;10323149;28;20227;-70
2020/12/10 16:52:25;;;;;;;0.90;0.53;;;12.60;99.90;;;;;;10323890;28;20203;-68
2020/12/10 16:57:27;;;;;;;0.87;0.47;;;12.40;99.90;;;;;;10323268;28;20226;-69
2020/12/10 17:02:37;;;;;;;0.60;0.60;;;12.20;99.90;;;;;;10323371;28;20238;-68
2020/12/10 17:07:40;;;;;;;2.17;1.63;;;12.00;99.90;;;;;;10323229;28;20306;-69
2020/12/10 17:12:43;;;;;;;1.67;1.07;;;11.80;99.90;;;;;;10317696;28;20206;-69
2020/12/10 17:17:46;;;;;;;0.40;0.40;;;11.80;99.90;;;;;;10322993;28;20418;-70
2020/12/10 17:22:49;;;;;;;3.30;0.97;;;12.00;99.90;;;;;;10338261;28;20233;-69
2020/12/10 17:27:51;;;;;;;1.57;1.43;;;11.80;99.90;;;;;;10322762;28;20231;-68
2020/12/10 17:32:55;;;;;;;1.03;0.83;;;11.70;99.90;;;;;;10323840;28;20206;-68
2020/12/10 17:37:57;;;;;;;1.90;1.63;;;11.80;99.90;;;;;;10361622;28;20282;-68
2020/12/10 17:43:00;;;;;;;2.40;1.80;;;11.70;99.90;;;;;;10325499;28;20201;-68
2020/12/10 17:48:03;;;;;;;2.10;1.90;;;11.70;99.90;;;;;;10323235;28;20223;-74
2020/12/10 17:53:09;;;;;;;1.97;1.13;;;11.40;99.90;;;;;;10322841;28;20196;-69
2020/12/10 17:58:12;;;;;;;0.57;0.57;;;11.50;99.90;;;;;;10322734;28;20621;-67
2020/12/10 18:03:15;;;;;;;0.67;0.67;;;11.70;99.90;;;;;;10361920;28;20699;-67
2020/12/10 18:08:18;;;;;;;0.87;0.87;;;12.10;99.90;;;;;;10370248;28;20253;-70
2020/12/10 18:13:21;;;;;;;0.53;0.43;;;12.20;99.90;;;;;;10332885;28;20609;-71
2020/12/10 18:18:24;;;;;;;1.80;1.17;;;12.20;99.90;;;;;;10318691;28;20275;-69
2020/12/10 18:23:27;;;;;;;0.47;0.47;;;12.30;99.90;;;;;;10322221;28;20217;-69
2020/12/10 18:28:29;;;;;;;0.63;0.63;;;12.30;99.90;;;;;;10322619;28;20239;-66
2020/12/10 18:33:33;;;;;;;0.70;0.57;;;12.30;99.90;;;;;;10321573;28;20253;-69
2020/12/10 18:38:35;;;;;;;0.40;0.23;;;12.30;99.90;;;;;;10322832;28;20290;-69
2020/12/10 18:43:38;;;;;;;0.53;0.53;;;12.30;99.90;;;;;;10337191;28;20253;-70
2020/12/10 18:48:41;;;;;;;0.30;0.23;;;12.20;99.90;;;;;;10369978;28;20241;-69
2020/12/10 18:53:46;;;;;;;0.20;0.20;;;12.00;99.90;;;;;;10370434;28;20224;-69
2020/12/10 18:58:48;;;;;;;1.87;1.43;;;11.50;99.90;;;;;;10369122;28;20697;-69
2020/12/10 19:03:52;;;;;;;2.50;0.73;;;11.20;99.90;;;;;;10330523;28;20224;-69
2020/12/10 19:08:55;;;;;;;0.80;0.80;;;11.10;99.90;;;;;;10329225;28;20227;-69
2020/12/10 19:13:59;;;;;;;0.60;0.60;;;11.20;99.90;;;;;;10330159;28;20557;-69
2020/12/10 19:19:03;;;;;;;1.37;0.90;;;11.40;99.90;;;;;;10361541;28;20279;-68
2020/12/10 19:24:06;;;;;;;1.10;0.63;;;11.10;99.90;;;;;;10367872;28;20222;-69
2020/12/10 19:29:08;;;;;;;1.23;1.03;;;10.90;99.90;;;;;;10368125;28;20240;-68
2020/12/10 19:34:12;;;;;;;1.10;0.70;;;10.60;99.90;;;;;;10340633;28;20194;-70
2020/12/10 19:39:14;;;;;;;2.07;0.80;;;10.50;99.90;;;;;;10331751;28;20196;-69
2020/12/10 19:44:17;;;;;;;1.77;1.67;;;10.50;99.90;;;;;;10331682;28;20550;-70
2020/12/10 19:49:21;;;;;;;1.83;1.43;;;10.10;99.90;;;;;;10331053;28;20227;-71
2020/12/10 19:54:23;;;;;;;1.07;0.93;;;10.20;99.90;;;;;;10331172;28;20615;-70
2020/12/10 19:59:26;;;;;;;2.00;0.87;;;10.20;99.90;;;;;;10312985;28;21253;-72
2020/12/10 20:04:29;;;;;;;0.40;0.40;;;10.00;99.90;;;;;;10291205;28;20192;-69
2020/12/10 20:09:33;;;;;;;2.77;0.80;;;9.70;99.90;;;;;;10290938;28;20220;-72
2020/12/10 20:14:36;;;;;;;0.80;0.67;;;9.60;99.90;;;;;;10290977;28;20725;-69
2020/12/10 20:19:40;;;;;;;0.60;0.50;;;9.60;99.90;;;;;;10289924;28;20746;-68
2020/12/10 20:24:42;;;;;;;0.83;0.50;;;9.50;99.90;;;;;;10293763;28;20191;-69
2020/12/10 20:29:47;;;;;;;1.07;0.97;;;9.50;99.90;;;;;;10322394;28;20685;-69
2020/12/10 20:34:50;;;;;;;1.40;0.60;;;9.40;99.90;;;;;;10330476;28;20199;-70
2020/12/10 20:39:53;;;;;;;1.07;0.70;;;9.40;99.90;;;;;;10330361;28;20202;-71
2020/12/10 20:44:56;;;;;;;0.63;0.63;;;9.20;99.90;;;;;;10321956;28;20193;-70
2020/12/10 20:50:00;;;;;;;0.33;0.33;;;9.10;99.90;;;;;;10308227;28;20227;-70
2020/12/10 20:55:02;;;;;;;1.53;1.43;;;8.90;99.90;;;;;;10309371;28;20275;-70
2020/12/10 21:00:05;;;;;;;0.20;0.10;;;9.00;99.90;;;;;;10307011;28;20231;-70
2020/12/10 21:05:11;;;;;;;0.20;0.20;;;9.00;99.90;;;;;;10317980;28;20192;-70
2020/12/10 21:10:17;;;;;;;0.40;0.33;;;8.80;99.90;;;;;;10329485;28;20273;-70
2020/12/10 21:15:19;;;;;;;0.23;0.20;;;8.60;99.90;;;;;;10328749;28;20199;-70
2020/12/10 21:20:22;;;;;;;0.47;0.47;;;8.60;99.90;;;;;;10293419;28;20204;-70
2020/12/10 21:25:25;;;;;;;0.43;0.43;;;8.50;99.90;;;;;;10288615;28;20196;-70
2020/12/10 21:30:27;;;;;;;0.57;0.57;;;8.50;99.90;;;;;;10291342;28;20589;-70
2020/12/10 21:35:31;;;;;;;0.20;0.10;;;8.30;99.90;;;;;;10327989;28;20198;-70
2020/12/10 21:40:33;;;;;;;1.53;1.43;;;8.50;99.90;;;;;;10328647;28;20200;-70
2020/12/10 21:45:36;;;;;;;0.50;0.50;;;8.60;99.90;;;;;;10328139;28;20197;-70
2020/12/10 21:50:42;;;;;;;2.00;1.20;;;8.70;99.90;;;;;;10328512;28;20565;-69
2020/12/10 21:55:44;;;;;;;2.87;1.93;;;8.80;99.90;;;;;;10328158;28;20202;-69
2020/12/10 22:00:47;;;;;;;1.87;1.63;;;8.90;99.90;;;;;;10328317;28;20254;-69
2020/12/10 22:05:51;;;;;;;1.00;0.97;;;9.00;99.90;;;;;;10327771;28;20687;-69
2020/12/10 22:10:56;;;;;;;0.43;0.43;;;9.10;99.90;;;;;;10327626;28;20235;-69
2020/12/10 22:15:58;;;;;;;0.40;0.40;;;9.10;99.90;;;;;;10326925;28;20616;-69
2020/12/10 22:21:02;;;;;;;0.40;0.40;;;9.10;99.90;;;;;;10327278;28;20422;-69
2020/12/10 22:26:04;;;;;;;0.60;0.60;;;9.00;99.90;;;;;;10327198;28;20652;-69
2020/12/10 22:31:07;;;;;;;0.97;0.77;;;9.00;99.90;;;;;;10326206;28;20506;-70
2020/12/10 22:36:11;;;;;;;1.33;1.20;;;9.10;99.90;;;;;;10326727;28;20588;-69
2020/12/10 22:41:14;;;;;;;0.77;0.40;;;9.20;99.90;;;;;;10326452;28;20234;-69
2020/12/10 22:46:17;;;;;;;0.40;0.40;;;9.10;99.90;;;;;;10326925;28;20196;-69
2020/12/10 22:51:21;;;;;;;1.63;1.00;;;9.10;99.90;;;;;;10326371;28;20238;-70
2020/12/10 22:56:24;;;;;;;1.90;1.40;;;9.10;99.90;;;;;;10326593;28;20219;-69
2020/12/10 23:01:27;;;;;;;1.13;0.40;;;9.20;99.90;;;;;;10326183;28;20235;-69
2020/12/10 23:06:30;;;;;;;1.90;1.40;;;9.20;99.90;;;;;;10326106;28;20199;-69
2020/12/10 23:11:33;;;;;;;0.30;0.30;;;9.20;99.90;;;;;;10326195;28;20203;-69
2020/12/10 23:16:35;;;;;;;0.20;0.20;;;9.20;99.90;;;;;;10324668;28;20230;-68
2020/12/10 23:21:39;;;;;;;0.97;0.33;;;9.00;99.90;;;;;;10328185;28;20219;-69
2020/12/10 23:26:41;;;;;;;0.60;0.60;;;8.90;99.90;;;;;;10330419;28;20195;-70
2020/12/10 23:31:45;;;;;;;0.80;0.80;;;9.00;99.90;;;;;;10333798;28;20282;-69
2020/12/10 23:36:48;;;;;;;1.07;0.30;;;9.30;99.90;;;;;;10332983;28;20287;-69
2020/12/10 23:41:51;;;;;;;0.20;0.20;;;9.40;99.90;;;;;;10333070;28;20585;-69
2020/12/10 23:46:55;;;;;;;0.27;0.17;;;9.40;99.90;;;;;;10332484;28;20198;-69
2020/12/10 23:51:59;;;;;;;0.20;0.20;;;9.50;99.90;;;;;;10332664;28;20191;-69
2020/12/10 23:57:02;;;;;;;0.27;0.23;;;9.40;99.90;;;;;;10332128;28;20195;-68
